createdAt,value
2022-09-18T00:02:12.571Z,27.60
2022-09-18T00:04:45.165Z,27.60
2022-09-18T00:07:16.286Z,27.60
2022-09-18T00:12:39.683Z,27.70
2022-09-18T00:15:11.955Z,27.70
2022-09-18T00:17:42.820Z,27.60
2022-09-18T00:20:14.311Z,27.70
2022-09-18T00:22:45.627Z,27.70
2022-09-18T00:25:37.571Z,27.70
2022-09-18T00:28:29.176Z,27.70
2022-09-18T00:31:22.652Z,27.70
2022-09-18T00:36:46.142Z,27.70
2022-09-18T00:39:17.662Z,27.70
2022-09-18T00:41:51.471Z,27.70
2022-09-18T00:44:37.428Z,27.70
2022-09-18T00:47:49.070Z,27.70
2022-09-18T00:50:25.749Z,27.70
2022-09-18T00:53:03.460Z,27.70
2022-09-18T00:55:39.817Z,27.70
2022-09-18T00:58:12.056Z,27.70
2022-09-18T01:00:43.542Z,27.70
2022-09-18T01:03:20.049Z,27.70
2022-09-18T01:06:49.114Z,27.70
2022-09-18T01:09:33.889Z,27.70
2022-09-18T01:12:20.299Z,27.70
2022-09-18T01:15:25.546Z,27.70
2022-09-18T01:18:24.230Z,27.70
2022-09-18T01:21:55.375Z,27.70
2022-09-18T01:24:52.406Z,27.70
2022-09-18T01:28:00.171Z,27.70
2022-09-18T01:30:56.415Z,27.80
2022-09-18T01:33:49.664Z,27.80
2022-09-18T01:36:32.278Z,27.80
2022-09-18T01:39:17.184Z,27.70
2022-09-18T01:41:53.346Z,27.70
2022-09-18T01:47:24.434Z,27.80
2022-09-18T01:52:58.464Z,27.80
2022-09-18T01:55:35.637Z,27.80
2022-09-18T01:58:12.406Z,27.80
2022-09-18T02:01:11.481Z,27.80
2022-09-18T02:03:52.483Z,27.80
2022-09-18T02:06:34.467Z,27.80
2022-09-18T02:09:17.931Z,27.80
2022-09-18T02:12:13.202Z,27.80
2022-09-18T02:17:58.310Z,27.80
2022-09-18T02:21:11.886Z,27.90
2022-09-18T02:23:44.790Z,27.90
2022-09-18T02:26:20.292Z,28.00
2022-09-18T02:28:54.522Z,27.90
2022-09-18T02:31:26.070Z,27.90
2022-09-18T02:33:57.205Z,28.00
2022-09-18T02:36:54.053Z,28.00
2022-09-18T02:42:49.620Z,28.00
2022-09-18T02:45:51.097Z,27.90
2022-09-18T02:48:43.909Z,28.00
2022-09-18T02:51:24.298Z,28.00
2022-09-18T02:54:01.596Z,28.00
2022-09-18T02:57:10.754Z,28.00
2022-09-18T02:59:49.613Z,28.00
2022-09-18T03:02:34.159Z,28.10
2022-09-18T03:05:05.152Z,28.00
2022-09-18T03:08:07.808Z,28.00
2022-09-18T03:10:43.191Z,28.10
2022-09-18T03:13:14.382Z,28.00
2022-09-18T03:15:45.721Z,28.10
2022-09-18T03:18:16.966Z,28.00
2022-09-18T03:23:32.438Z,28.10
2022-09-18T03:26:20.384Z,28.10
2022-09-18T03:29:10.974Z,28.10
2022-09-18T03:32:10.515Z,28.10
2022-09-18T03:34:49.847Z,28.10
2022-09-18T03:37:21.009Z,28.10
2022-09-18T03:39:53.097Z,28.10
2022-09-18T03:42:32.410Z,28.10
2022-09-18T03:45:26.177Z,28.10
2022-09-18T03:47:58.169Z,28.10
2022-09-18T03:50:57.518Z,28.10
2022-09-18T03:53:39.193Z,28.10
2022-09-18T03:56:41.604Z,28.10
2022-09-18T03:59:39.010Z,28.10
2022-09-18T04:02:48.694Z,28.10
2022-09-18T04:05:56.315Z,28.10
2022-09-18T04:09:12.736Z,28.20
2022-09-18T04:11:54.042Z,28.10
2022-09-18T04:14:50.490Z,28.20
2022-09-18T04:18:01.007Z,28.20
2022-09-18T04:20:35.581Z,28.20
2022-09-18T04:23:33.134Z,28.20
2022-09-18T04:26:11.372Z,28.20
2022-09-18T04:29:13.328Z,28.20
2022-09-18T04:31:45.143Z,28.20
2022-09-18T04:37:10.114Z,28.30
2022-09-18T04:40:07.806Z,28.20
2022-09-18T04:42:40.960Z,28.30
2022-09-18T04:45:12.923Z,28.20
2022-09-18T04:47:46.037Z,28.20
2022-09-18T04:50:35.997Z,28.20
2022-09-18T04:53:27.244Z,28.20
2022-09-18T04:58:54.039Z,28.30
2022-09-18T05:02:20.503Z,28.30
2022-09-18T05:04:52.478Z,28.30
2022-09-18T05:07:54.650Z,28.30
2022-09-18T05:10:28.221Z,28.30
2022-09-18T05:16:25.701Z,28.30
2022-09-18T05:19:50.085Z,28.30
2022-09-18T05:22:28.820Z,28.30
2022-09-18T05:25:01.155Z,28.30
2022-09-18T05:27:58.159Z,28.30
2022-09-18T05:30:33.753Z,28.30
2022-09-18T05:33:11.600Z,28.30
2022-09-18T05:36:07.262Z,28.20
2022-09-18T05:39:01.107Z,28.30
2022-09-18T05:41:33.105Z,28.30
2022-09-18T05:44:08.139Z,28.20
2022-09-18T05:46:40.545Z,28.30
2022-09-18T05:49:14.128Z,28.30
2022-09-18T05:52:25.278Z,28.30
2022-09-18T05:55:39.021Z,28.20
2022-09-18T05:58:42.350Z,28.20
2022-09-18T06:01:26.349Z,28.30
2022-09-18T06:04:20.919Z,28.30
2022-09-18T06:07:13.092Z,28.30
2022-09-18T06:09:46.325Z,28.30
2022-09-18T06:12:57.595Z,28.30
2022-09-18T06:15:49.982Z,28.30
2022-09-18T06:18:29.879Z,28.30
2022-09-18T06:21:25.787Z,28.30
2022-09-18T06:24:43.594Z,28.30
2022-09-18T06:27:22.025Z,28.30
2022-09-18T06:29:54.736Z,28.40
2022-09-18T06:32:58.488Z,28.40
2022-09-18T06:36:12.151Z,28.40
2022-09-18T06:38:58.452Z,28.40
2022-09-18T06:41:29.996Z,28.40
2022-09-18T06:44:01.475Z,28.40
2022-09-18T06:46:44.711Z,28.40
2022-09-18T06:49:54.477Z,28.50
2022-09-18T06:52:26.152Z,28.50
2022-09-18T06:55:01.361Z,28.50
2022-09-18T06:57:40.622Z,28.50
2022-09-18T07:00:45.457Z,28.50
2022-09-18T07:03:18.601Z,28.50
2022-09-18T07:06:18.848Z,28.50
2022-09-18T07:08:53.333Z,28.50
2022-09-18T07:11:37.716Z,28.50
2022-09-18T07:14:10.233Z,28.50
2022-09-18T07:16:42.231Z,28.50
2022-09-18T07:19:15.738Z,28.50
2022-09-18T07:21:52.320Z,28.50
2022-09-18T07:24:29.247Z,28.50
2022-09-18T07:27:01.009Z,28.50
2022-09-18T07:29:56.013Z,28.50
2022-09-18T07:32:58.846Z,28.50
2022-09-18T07:35:38.113Z,28.50
2022-09-18T07:38:12.873Z,28.60
2022-09-18T07:40:57.833Z,28.60
2022-09-18T07:43:59.329Z,28.60
2022-09-18T07:46:30.985Z,28.60
2022-09-18T07:49:06.324Z,28.60
2022-09-18T07:52:03.519Z,28.60
2022-09-18T07:54:48.290Z,28.60
2022-09-18T07:57:57.703Z,28.60
2022-09-18T08:01:05.172Z,28.60
2022-09-18T08:03:41.978Z,28.60
2022-09-18T08:06:15.940Z,28.60
2022-09-18T08:09:05.458Z,28.60
2022-09-18T08:12:01.931Z,28.60
2022-09-18T08:15:15.624Z,28.60
2022-09-18T08:18:08.553Z,28.60
2022-09-18T08:21:01.130Z,28.60
2022-09-18T08:23:54.547Z,28.60
2022-09-18T08:26:25.978Z,28.60
2022-09-18T08:29:09.558Z,28.70
2022-09-18T08:32:10.075Z,28.60
2022-09-18T08:34:46.571Z,28.60
2022-09-18T08:37:27.911Z,28.60
2022-09-18T08:40:36.305Z,28.70
2022-09-18T08:43:58.015Z,28.70
2022-09-18T08:47:07.253Z,28.60
2022-09-18T08:50:13.344Z,28.70
2022-09-18T08:53:22.046Z,28.70
2022-09-18T08:56:23.795Z,28.70
2022-09-18T08:59:43.617Z,28.70
2022-09-18T09:02:43.723Z,28.70
2022-09-18T09:05:25.722Z,28.70
2022-09-18T09:07:59.753Z,28.70
2022-09-18T09:10:46.276Z,28.70
2022-09-18T09:13:39.958Z,28.70
2022-09-18T09:20:14.459Z,28.70
2022-09-18T09:23:06.998Z,28.70
2022-09-18T09:25:52.141Z,28.80
2022-09-18T09:29:11.776Z,28.70
2022-09-18T09:32:30.884Z,28.70
2022-09-18T09:35:33.880Z,28.70
2022-09-18T09:38:35.780Z,28.70
2022-09-18T09:41:19.968Z,28.70
2022-09-18T09:48:30.156Z,28.70
2022-09-18T09:51:24.205Z,28.80
2022-09-18T09:53:57.412Z,28.70
2022-09-18T09:56:41.648Z,28.70
2022-09-18T09:59:48.791Z,28.80
2022-09-18T10:02:29.771Z,28.80
2022-09-18T10:05:32.682Z,28.80
2022-09-18T10:08:18.972Z,28.80
2022-09-18T10:11:12.833Z,28.80
2022-09-18T10:14:44.930Z,28.80
2022-09-18T10:17:25.489Z,28.80
2022-09-18T10:20:03.770Z,28.80
2022-09-18T10:22:43.818Z,28.80
2022-09-18T10:25:33.102Z,28.70
2022-09-18T10:28:08.755Z,28.70
2022-09-18T10:31:15.494Z,28.60
2022-09-18T10:34:00.649Z,28.60
2022-09-18T10:36:44.838Z,28.50
2022-09-18T10:39:32.627Z,28.60
2022-09-18T10:42:19.541Z,28.50
2022-09-18T10:49:25.811Z,28.50
2022-09-18T10:52:28.216Z,28.50
2022-09-18T10:55:10.952Z,28.50
2022-09-18T10:57:59.750Z,28.50
2022-09-18T11:00:35.420Z,28.50
2022-09-18T11:03:56.470Z,28.50
2022-09-18T11:06:34.356Z,28.50
2022-09-18T11:09:48.177Z,28.50
2022-09-18T11:12:24.243Z,28.50
2022-09-18T11:15:04.470Z,28.50
2022-09-18T11:17:59.187Z,28.50
2022-09-18T11:20:43.788Z,28.50
2022-09-18T11:23:31.729Z,28.50
2022-09-18T11:26:21.396Z,28.60
2022-09-18T11:29:27.198Z,28.50
2022-09-18T11:32:15.327Z,28.50
2022-09-18T11:35:00.209Z,28.50
2022-09-18T11:37:39.086Z,28.50
2022-09-18T11:40:24.921Z,28.50
2022-09-18T11:46:24.692Z,28.50
2022-09-18T11:49:31.560Z,28.50
2022-09-18T11:52:22.368Z,28.50
2022-09-18T11:55:16.455Z,28.50
2022-09-18T11:58:36.575Z,28.50
2022-09-18T12:01:28.846Z,28.50
2022-09-18T12:04:41.226Z,28.50
2022-09-18T12:07:39.466Z,28.50
2022-09-18T12:10:48.710Z,28.50
2022-09-18T12:13:49.528Z,28.50
2022-09-18T12:16:45.870Z,28.50
2022-09-18T12:19:23.375Z,28.50
2022-09-18T12:22:06.929Z,28.50
2022-09-18T12:24:39.388Z,28.50
2022-09-18T12:27:53.603Z,28.50
2022-09-18T12:31:26.989Z,28.50
2022-09-18T12:34:12.150Z,28.50
2022-09-18T12:37:17.438Z,28.50
2022-09-18T12:40:25.216Z,28.50
2022-09-18T12:43:12.141Z,28.50
2022-09-18T12:46:13.305Z,28.50
2022-09-18T12:49:06.096Z,28.50
2022-09-18T12:52:21.327Z,28.50
2022-09-18T12:55:16.825Z,28.50
2022-09-18T12:58:05.023Z,28.50
2022-09-18T13:00:39.305Z,28.50
2022-09-18T13:03:36.318Z,28.50
2022-09-18T13:06:15.469Z,28.50
2022-09-18T13:09:07.440Z,28.50
2022-09-18T13:11:53.936Z,28.50
2022-09-18T13:15:01.868Z,28.50
2022-09-18T13:17:46.881Z,28.50
2022-09-18T13:20:22.945Z,28.50
2022-09-18T13:23:18.203Z,28.50
2022-09-18T13:26:02.255Z,28.50
2022-09-18T13:28:42.285Z,28.50
2022-09-18T13:31:30.728Z,28.50
2022-09-18T13:34:08.922Z,28.50
2022-09-18T13:36:43.859Z,28.50
2022-09-18T13:39:23.312Z,28.50
2022-09-18T13:41:58.709Z,28.50
2022-09-18T13:44:33.816Z,28.50
2022-09-18T13:47:22.484Z,28.50
2022-09-18T13:49:58.791Z,28.50
2022-09-18T13:52:40.511Z,28.50
2022-09-18T13:55:15.561Z,28.50
2022-09-18T13:58:09.365Z,28.50
2022-09-18T14:00:43.373Z,28.50
2022-09-18T14:03:24.009Z,28.50
2022-09-18T14:05:58.562Z,28.50
2022-09-18T14:11:26.870Z,28.50
2022-09-18T14:14:00.670Z,28.50
2022-09-18T14:16:40.403Z,28.50
2022-09-18T14:19:30.336Z,28.50
2022-09-18T14:22:03.360Z,28.50
2022-09-18T14:25:01.519Z,28.50
2022-09-18T14:28:05.733Z,28.50
2022-09-18T14:30:37.349Z,28.50
2022-09-18T14:33:13.096Z,28.50
2022-09-18T14:36:18.270Z,28.40
2022-09-18T14:38:49.836Z,28.40
2022-09-18T14:41:31.114Z,28.50
2022-09-18T14:44:05.812Z,28.40
2022-09-18T14:47:04.790Z,28.50
2022-09-18T14:50:04.777Z,28.50
2022-09-18T14:53:10.959Z,28.50
2022-09-18T14:55:50.547Z,28.40
2022-09-18T14:58:33.537Z,28.40
2022-09-18T15:01:23.577Z,28.40
2022-09-18T15:03:58.906Z,28.40
2022-09-18T15:06:55.300Z,28.40
2022-09-18T15:09:35.527Z,28.40
2022-09-18T15:12:29.400Z,28.50
2022-09-18T15:15:01.014Z,28.40
2022-09-18T15:17:55.432Z,28.40
2022-09-18T15:20:28.831Z,28.40
2022-09-18T15:23:25.242Z,28.40
2022-09-18T15:26:28.969Z,28.40
2022-09-18T15:29:39.524Z,28.40
2022-09-18T15:32:55.489Z,28.40
2022-09-18T15:35:54.876Z,28.40
2022-09-18T15:38:40.012Z,28.40
2022-09-18T15:42:00.971Z,28.40
2022-09-18T15:45:00.376Z,28.40
2022-09-18T15:47:39.166Z,28.40
2022-09-18T15:50:22.643Z,28.40
2022-09-18T15:53:00.292Z,28.40
2022-09-18T15:55:57.068Z,28.40
2022-09-18T15:58:56.911Z,28.40
2022-09-18T16:01:42.000Z,28.40
2022-09-18T16:04:34.777Z,28.40
2022-09-18T16:07:28.417Z,28.40
2022-09-18T16:10:03.136Z,28.40
2022-09-18T16:12:57.417Z,28.40
2022-09-18T16:15:29.175Z,28.40
2022-09-18T16:18:18.986Z,28.40
2022-09-18T16:20:54.082Z,28.40
2022-09-18T16:23:34.626Z,28.40
2022-09-18T16:26:43.037Z,28.40
2022-09-18T16:29:23.124Z,28.40
2022-09-18T16:31:55.821Z,28.40
2022-09-18T16:34:29.722Z,28.40
2022-09-18T16:37:02.056Z,28.40
2022-09-18T16:39:33.879Z,28.40
2022-09-18T16:42:40.080Z,28.40
2022-09-18T16:45:33.918Z,28.40
2022-09-18T16:48:09.385Z,28.40
2022-09-18T16:50:43.013Z,28.40
2022-09-18T16:53:14.647Z,28.40
2022-09-18T16:55:53.849Z,28.40
2022-09-18T16:58:27.561Z,28.40
2022-09-18T17:01:00.539Z,28.40
2022-09-18T17:03:33.063Z,28.30
2022-09-18T17:06:04.639Z,28.40
2022-09-18T17:08:36.005Z,28.40
2022-09-18T17:11:07.810Z,28.30
2022-09-18T17:13:38.975Z,28.30
2022-09-18T17:16:09.977Z,28.30
2022-09-18T17:18:41.021Z,28.30
2022-09-18T17:21:12.452Z,28.30
2022-09-18T17:23:43.510Z,28.40
2022-09-18T17:27:12.864Z,28.30
2022-09-18T17:29:43.771Z,28.30
2022-09-18T17:32:18.469Z,28.30
2022-09-18T17:35:09.511Z,28.30
2022-09-18T17:38:23.329Z,28.30
2022-09-18T17:41:01.860Z,28.30
2022-09-18T17:43:34.882Z,28.30
2022-09-18T17:46:11.245Z,28.30
2022-09-18T17:48:42.504Z,28.20
2022-09-18T17:51:35.124Z,28.30
2022-09-18T17:54:06.762Z,28.20
2022-09-18T17:56:38.234Z,28.30
2022-09-18T17:59:12.750Z,28.30
2022-09-18T18:02:23.058Z,28.30
2022-09-18T18:05:35.603Z,28.30
2022-09-18T18:08:38.598Z,28.30
2022-09-18T18:11:34.722Z,28.20
2022-09-18T18:14:19.775Z,28.20
2022-09-18T18:17:37.386Z,28.20
2022-09-18T18:20:08.732Z,28.20
2022-09-18T18:22:46.896Z,28.20
2022-09-18T18:25:18.025Z,28.20
2022-09-18T18:27:53.048Z,28.20
2022-09-18T18:30:32.549Z,28.20
2022-09-18T18:33:07.079Z,28.20
2022-09-18T18:36:10.142Z,28.20
2022-09-18T18:38:42.166Z,28.20
2022-09-18T18:41:20.909Z,28.20
2022-09-18T18:44:16.139Z,28.20
2022-09-18T18:46:57.561Z,28.20
2022-09-18T18:49:49.644Z,28.10
2022-09-18T18:52:28.739Z,28.10
2022-09-18T18:55:24.304Z,28.20
2022-09-18T18:57:55.874Z,28.20
2022-09-18T19:00:48.468Z,28.10
2022-09-18T19:03:39.980Z,28.10
2022-09-18T19:06:53.509Z,28.10
2022-09-18T19:09:31.016Z,28.20
2022-09-18T19:12:30.829Z,28.20
2022-09-18T19:15:11.714Z,28.20
2022-09-18T19:17:51.733Z,28.20
2022-09-18T19:20:25.892Z,28.20
2022-09-18T19:23:00.196Z,28.20
2022-09-18T19:25:37.153Z,28.20
2022-09-18T19:28:09.035Z,28.20
2022-09-18T19:30:49.877Z,28.20
2022-09-18T19:33:22.368Z,28.20
2022-09-18T19:35:53.759Z,28.10
2022-09-18T19:38:45.979Z,28.20
2022-09-18T19:41:40.083Z,28.20
2022-09-18T19:44:42.128Z,28.20
2022-09-18T19:47:19.372Z,28.10
2022-09-18T19:49:53.710Z,28.20
2022-09-18T19:52:34.653Z,28.20
2022-09-18T19:55:28.728Z,28.20
2022-09-18T19:58:02.737Z,28.10
2022-09-18T20:00:47.344Z,28.20
2022-09-18T20:03:36.114Z,28.20
2022-09-18T20:06:28.203Z,28.20
2022-09-18T20:09:09.415Z,28.20
2022-09-18T20:11:53.088Z,28.20
2022-09-18T20:15:10.772Z,28.20
2022-09-18T20:18:17.022Z,28.20
2022-09-18T20:20:51.269Z,28.20
2022-09-18T20:23:25.869Z,28.20
2022-09-18T20:26:00.795Z,28.20
2022-09-18T20:28:44.613Z,28.20
2022-09-18T20:31:35.344Z,28.20
2022-09-18T20:34:08.107Z,28.20
2022-09-18T20:36:56.092Z,28.20
2022-09-18T20:39:50.842Z,28.10
2022-09-18T20:42:24.822Z,28.10
2022-09-18T20:45:30.779Z,28.20
2022-09-18T20:48:07.695Z,28.20
2022-09-18T20:50:55.144Z,28.10
2022-09-18T20:53:39.518Z,28.10
2022-09-18T20:56:33.736Z,28.10
2022-09-18T20:59:06.241Z,28.20
2022-09-18T21:02:01.780Z,28.20
2022-09-18T21:04:35.511Z,28.20
2022-09-18T21:07:10.105Z,28.10
2022-09-18T21:09:44.277Z,28.10
2022-09-18T21:12:40.529Z,28.10
2022-09-18T21:15:21.006Z,28.10
2022-09-18T21:17:55.053Z,28.10
2022-09-18T21:20:46.640Z,28.10
2022-09-18T21:23:35.722Z,28.10
2022-09-18T21:26:42.121Z,28.10
2022-09-18T21:29:31.192Z,28.10
2022-09-18T21:32:13.410Z,28.10
2022-09-18T21:34:53.976Z,28.10
2022-09-18T21:37:44.800Z,28.10
2022-09-18T21:40:43.077Z,28.10
2022-09-18T21:43:16.998Z,28.10
2022-09-18T21:45:49.512Z,28.10
2022-09-18T21:48:25.139Z,28.10
2022-09-18T21:50:56.368Z,28.10
2022-09-18T21:53:27.759Z,28.10
2022-09-18T21:56:07.224Z,28.10
2022-09-18T21:58:41.541Z,28.10
2022-09-18T22:01:24.500Z,28.10
2022-09-18T22:04:27.656Z,28.10
2022-09-18T22:07:03.686Z,28.10
2022-09-18T22:09:39.667Z,28.10
2022-09-18T22:12:11.433Z,28.10
2022-09-18T22:14:42.733Z,28.10
2022-09-18T22:17:19.530Z,28.10
2022-09-18T22:19:53.965Z,28.00
2022-09-18T22:22:28.467Z,28.00
2022-09-18T22:25:19.569Z,28.10
2022-09-18T22:28:06.461Z,28.10
2022-09-18T22:30:47.039Z,28.10
2022-09-18T22:33:17.902Z,28.10
2022-09-18T22:38:32.928Z,28.00
2022-09-18T22:41:08.758Z,28.00
2022-09-18T22:43:39.865Z,28.00
2022-09-18T22:46:13.613Z,28.00
2022-09-18T22:48:51.241Z,28.00
2022-09-18T22:51:26.798Z,28.00
2022-09-18T22:57:12.642Z,28.00
2022-09-18T22:59:43.773Z,28.00
2022-09-18T23:02:18.240Z,28.00
2022-09-18T23:05:07.767Z,28.00
2022-09-18T23:08:09.236Z,28.00
2022-09-18T23:10:40.745Z,28.10
2022-09-18T23:13:12.445Z,28.10
2022-09-18T23:15:54.668Z,28.10
2022-09-18T23:18:39.620Z,28.10
2022-09-18T23:21:16.391Z,28.00
2022-09-18T23:23:54.434Z,28.00
2022-09-18T23:26:36.013Z,28.10
2022-09-18T23:29:24.062Z,28.10
2022-09-18T23:31:59.298Z,28.10
2022-09-18T23:34:42.669Z,28.10
2022-09-18T23:37:13.943Z,28.10
2022-09-18T23:39:57.494Z,28.10
2022-09-18T23:42:43.939Z,28.10
2022-09-18T23:45:15.643Z,28.10
2022-09-18T23:47:52.765Z,28.10
2022-09-18T23:50:24.614Z,28.10
2022-09-18T23:52:56.210Z,28.10
2022-09-18T23:55:28.608Z,28.10
2022-09-18T23:58:00.657Z,28.10
